createdAt,value
2022-12-29T00:00:26.111Z,95760.28
2022-12-29T00:02:55.316Z,95632.25
2022-12-29T00:05:23.009Z,95750.34
2022-12-29T00:07:50.670Z,95671.97
2022-12-29T00:10:18.559Z,95747.19
2022-12-29T00:13:04.230Z,95711.03
2022-12-29T00:15:41.017Z,95739.00
2022-12-29T00:18:10.343Z,95734.81
2022-12-29T00:20:56.615Z,95738.94
2022-12-29T00:23:43.831Z,95729.09
2022-12-29T00:26:33.228Z,95726.56
2022-12-29T00:29:19.076Z,95744.53
2022-12-29T00:32:04.411Z,95667.22
2022-12-29T00:34:51.121Z,95738.84
2022-12-29T00:37:39.404Z,95762.84
2022-12-29T00:40:25.334Z,95735.63
2022-12-29T00:43:10.834Z,95702.47
2022-12-29T00:45:38.505Z,95723.09
2022-12-29T00:48:06.330Z,95731.78
2022-12-29T00:50:35.346Z,95722.16
2022-12-29T00:53:02.977Z,95610.72
2022-12-29T00:55:30.609Z,95736.78
2022-12-29T00:57:59.252Z,95716.19
2022-12-29T01:00:26.946Z,95743.78
2022-12-29T01:02:54.657Z,95736.16
2022-12-29T01:05:22.351Z,95738.41
2022-12-29T01:07:51.311Z,95731.59
2022-12-29T01:10:18.103Z,95744.94
2022-12-29T01:12:46.264Z,95742.31
2022-12-29T01:15:16.475Z,95692.78
2022-12-29T01:17:44.287Z,95742.97
2022-12-29T01:20:12.853Z,95717.88
2022-12-29T01:22:43.321Z,95680.31
2022-12-29T01:25:12.336Z,95741.16
2022-12-29T01:27:39.991Z,95737.94
2022-12-29T01:30:08.784Z,95628.50
2022-12-29T01:32:36.459Z,95743.09
2022-12-29T01:35:04.345Z,95749.53
2022-12-29T01:37:31.964Z,95746.63
2022-12-29T01:39:59.629Z,95750.47
2022-12-29T01:42:28.676Z,95702.44
2022-12-29T01:44:57.618Z,95726.13
2022-12-29T01:47:34.799Z,95751.00
2022-12-29T01:50:07.887Z,95745.25
2022-12-29T01:52:39.208Z,95747.50
2022-12-29T01:55:08.334Z,95638.81
2022-12-29T01:57:41.904Z,95725.97
2022-12-29T02:00:11.839Z,95739.97
2022-12-29T02:02:45.983Z,95737.06
2022-12-29T02:05:19.451Z,95733.41
2022-12-29T02:07:48.687Z,95729.56
2022-12-29T02:10:17.149Z,95726.25
2022-12-29T02:12:47.373Z,95728.06
2022-12-29T02:15:16.928Z,95718.94
2022-12-29T02:18:03.455Z,95724.53
2022-12-29T02:21:07.275Z,95712.19
2022-12-29T02:23:55.919Z,95719.19
2022-12-29T02:26:48.401Z,95725.31
2022-12-29T02:32:17.760Z,95724.16
2022-12-29T02:34:55.992Z,95705.84
2022-12-29T02:37:28.490Z,95706.41
2022-12-29T02:40:03.370Z,95628.75
2022-12-29T02:42:38.343Z,95709.13
2022-12-29T02:45:12.978Z,95714.47
2022-12-29T02:47:50.202Z,95709.56
2022-12-29T02:50:23.287Z,95600.88
2022-12-29T02:52:56.522Z,95667.75
2022-12-29T02:55:23.245Z,95703.38
2022-12-29T02:58:06.452Z,95698.16
2022-12-29T03:00:39.540Z,95685.91
2022-12-29T03:03:23.915Z,95681.41
2022-12-29T03:06:19.633Z,95699.75
2022-12-29T03:08:56.436Z,95661.34
2022-12-29T03:11:50.210Z,95699.09
2022-12-29T03:14:46.945Z,95675.34
2022-12-29T03:17:23.240Z,95654.72
2022-12-29T03:19:57.485Z,95696.75
2022-12-29T03:22:29.091Z,95684.19
2022-12-29T03:25:16.266Z,95681.09
2022-12-29T03:27:47.089Z,95674.25
2022-12-29T03:30:15.844Z,95677.44
2022-12-29T03:32:48.684Z,95676.72
2022-12-29T03:35:21.790Z,95663.81
2022-12-29T03:37:54.909Z,95578.44
2022-12-29T03:40:25.600Z,95670.94
2022-12-29T03:42:55.280Z,95588.16
2022-12-29T03:45:23.306Z,95669.03
2022-12-29T03:47:51.297Z,95674.38
2022-12-29T03:50:21.161Z,95672.28
2022-12-29T03:52:48.899Z,95665.44
2022-12-29T03:55:16.557Z,95672.25
2022-12-29T03:57:46.391Z,95672.53
2022-12-29T04:00:19.322Z,95666.34
2022-12-29T04:02:50.631Z,95670.78
2022-12-29T04:05:23.898Z,95684.91
2022-12-29T04:07:55.167Z,95656.88
2022-12-29T04:10:22.880Z,95548.75
2022-12-29T04:12:54.251Z,95522.97
2022-12-29T04:15:22.079Z,95664.44
2022-12-29T04:17:50.149Z,95672.91
2022-12-29T04:20:35.735Z,95553.72
2022-12-29T04:23:08.729Z,95676.31
2022-12-29T04:25:37.508Z,95616.97
2022-12-29T04:28:05.400Z,95668.44
2022-12-29T04:30:44.044Z,95666.63
2022-12-29T04:33:19.676Z,95662.44
2022-12-29T04:35:47.666Z,95684.19
2022-12-29T04:38:17.956Z,95579.56
2022-12-29T04:40:46.826Z,95629.94
2022-12-29T04:43:15.214Z,95656.19
2022-12-29T04:46:00.348Z,95486.69
2022-12-29T04:48:38.042Z,95608.97
2022-12-29T04:51:32.002Z,95654.91
2022-12-29T04:54:01.182Z,95593.50
2022-12-29T04:56:29.933Z,95556.81
2022-12-29T04:58:59.017Z,95579.09
2022-12-29T05:01:26.790Z,95535.03
2022-12-29T05:03:54.865Z,95656.47
2022-12-29T05:06:22.647Z,95659.63
2022-12-29T05:08:51.224Z,95651.75
2022-12-29T05:11:20.295Z,95544.75
2022-12-29T05:13:50.337Z,95567.25
2022-12-29T05:16:19.091Z,95674.56
2022-12-29T05:18:46.959Z,95665.16
2022-12-29T05:21:15.571Z,95579.34
2022-12-29T05:23:44.783Z,95669.59
2022-12-29T05:26:12.607Z,95668.31
2022-12-29T05:28:58.634Z,95710.22
2022-12-29T05:31:26.384Z,95666.19
2022-12-29T05:33:54.355Z,95668.28
2022-12-29T05:36:22.426Z,95662.28
2022-12-29T05:38:54.506Z,95657.81
2022-12-29T05:41:22.419Z,95619.50
2022-12-29T05:44:20.756Z,95609.03
2022-12-29T05:47:08.544Z,95658.34
2022-12-29T05:49:45.392Z,95632.63
2022-12-29T05:52:42.423Z,95664.16
2022-12-29T05:55:10.595Z,95661.25
2022-12-29T05:57:40.035Z,95659.41
2022-12-29T06:00:20.152Z,95662.53
2022-12-29T06:02:48.592Z,95632.91
2022-12-29T06:05:18.437Z,95641.84
2022-12-29T06:07:46.670Z,95639.22
2022-12-29T06:10:17.499Z,95653.16
2022-12-29T06:12:56.354Z,95657.06
2022-12-29T06:15:25.685Z,95657.34
2022-12-29T06:17:55.536Z,95659.44
2022-12-29T06:20:24.515Z,95657.84
2022-12-29T06:22:52.175Z,95580.75
2022-12-29T06:25:20.162Z,95559.25
2022-12-29T06:27:48.140Z,95662.06
2022-12-29T06:30:15.937Z,95672.81
2022-12-29T06:32:46.693Z,95667.03
2022-12-29T06:35:14.688Z,95659.41
2022-12-29T06:37:55.009Z,95503.16
2022-12-29T06:40:24.024Z,95656.31
2022-12-29T06:43:11.934Z,95653.41
2022-12-29T06:46:06.285Z,95588.13
2022-12-29T06:48:35.426Z,95665.97
2022-12-29T06:51:03.168Z,95659.69
2022-12-29T06:53:30.817Z,95671.50
2022-12-29T06:55:58.556Z,95659.44
2022-12-29T06:58:26.274Z,95655.50
2022-12-29T07:00:53.976Z,95661.81
2022-12-29T07:03:21.707Z,95659.69
2022-12-29T07:05:53.199Z,95673.84
2022-12-29T07:08:20.854Z,95675.66
2022-12-29T07:10:48.766Z,95595.91
2022-12-29T07:13:16.436Z,95676.75
2022-12-29T07:15:44.080Z,95683.78
2022-12-29T07:18:11.694Z,95695.84
2022-12-29T07:20:39.307Z,95692.97
2022-12-29T07:23:08.327Z,95686.91
2022-12-29T07:25:36.934Z,95699.78
2022-12-29T07:28:04.829Z,95725.22
2022-12-29T07:30:32.508Z,95729.69
2022-12-29T07:33:00.402Z,95694.03
2022-12-29T07:35:28.075Z,95713.66
2022-12-29T07:37:55.683Z,95713.44
2022-12-29T07:40:24.792Z,95715.28
2022-12-29T07:42:52.413Z,95660.44
2022-12-29T07:45:28.258Z,95702.97
2022-12-29T07:48:06.849Z,95704.53
2022-12-29T07:50:34.636Z,95705.84
2022-12-29T07:53:02.316Z,95709.25
2022-12-29T07:55:31.554Z,95710.84
2022-12-29T07:57:59.195Z,95711.38
2022-12-29T08:00:27.086Z,95715.31
2022-12-29T08:02:54.684Z,95717.41
2022-12-29T08:05:22.572Z,95702.47
2022-12-29T08:07:50.464Z,95723.19
2022-12-29T08:10:18.698Z,95706.16
2022-12-29T08:12:47.740Z,95696.69
2022-12-29T08:15:15.654Z,95601.72
2022-12-29T08:17:43.469Z,95604.38
2022-12-29T08:20:11.674Z,95651.06
2022-12-29T08:22:39.411Z,95685.94
2022-12-29T08:25:07.547Z,95713.75
2022-12-29T08:27:35.147Z,95695.63
2022-12-29T08:30:04.769Z,95696.97
2022-12-29T08:32:32.619Z,95699.06
2022-12-29T08:35:00.250Z,95699.25
2022-12-29T08:37:31.249Z,95629.75
2022-12-29T08:39:59.759Z,95698.69
2022-12-29T08:42:31.781Z,95698.69
2022-12-29T08:44:59.948Z,95681.34
2022-12-29T08:47:29.061Z,95707.50
2022-12-29T08:49:57.691Z,95714.88
2022-12-29T08:52:25.357Z,95715.38
2022-12-29T08:54:53.053Z,95692.88
2022-12-29T08:57:21.765Z,95684.56
2022-12-29T09:00:06.560Z,95724.91
2022-12-29T09:02:35.869Z,95728.00
2022-12-29T09:05:03.658Z,95732.50
2022-12-29T09:07:31.299Z,95718.53
2022-12-29T09:09:58.927Z,95595.09
2022-12-29T09:12:30.175Z,95729.81
2022-12-29T09:15:00.910Z,95691.09
2022-12-29T09:17:44.329Z,95736.72
2022-12-29T09:20:14.593Z,95738.81
2022-12-29T09:22:42.612Z,95733.31
2022-12-29T09:25:11.671Z,95732.50
2022-12-29T09:27:39.420Z,95735.84
2022-12-29T09:30:10.265Z,95711.97
2022-12-29T09:32:44.551Z,95733.91
2022-12-29T09:35:14.311Z,95727.78
2022-12-29T09:37:43.506Z,95709.34
2022-12-29T09:40:27.913Z,95708.16
2022-12-29T09:43:07.177Z,95718.56
2022-12-29T09:45:42.406Z,95711.78
2022-12-29T09:48:19.775Z,95721.59
2022-12-29T09:50:54.859Z,95700.59
2022-12-29T09:53:27.505Z,95695.25
2022-12-29T09:55:59.400Z,95722.09
2022-12-29T09:58:32.428Z,95721.59
2022-12-29T10:01:05.658Z,95701.59
2022-12-29T10:03:46.021Z,95707.03
2022-12-29T10:06:20.591Z,95706.03
2022-12-29T10:08:59.437Z,95708.91
2022-12-29T10:11:40.742Z,95703.56
2022-12-29T10:14:23.429Z,95705.28
2022-12-29T10:16:56.606Z,95632.84
2022-12-29T10:19:45.357Z,95674.59
2022-12-29T10:22:30.853Z,95667.03
2022-12-29T10:24:58.711Z,95708.94
2022-12-29T10:27:26.518Z,95708.78
2022-12-29T10:29:57.782Z,95700.25
2022-12-29T10:32:36.667Z,95698.78
2022-12-29T10:35:11.753Z,95690.56
2022-12-29T10:37:45.106Z,95678.53
2022-12-29T10:40:21.046Z,95701.75
2022-12-29T10:42:54.124Z,95683.41
2022-12-29T10:45:25.019Z,95694.88
2022-12-29T10:47:59.512Z,95687.44
2022-12-29T10:50:30.386Z,95683.78
2022-12-29T10:53:02.834Z,95680.03
2022-12-29T10:55:34.843Z,95678.38
2022-12-29T10:58:27.740Z,95675.13
2022-12-29T11:00:56.676Z,95678.88
2022-12-29T11:03:48.202Z,95668.72
2022-12-29T11:06:24.113Z,95670.44
2022-12-29T11:08:57.625Z,95662.88
2022-12-29T11:11:28.062Z,95661.69
2022-12-29T11:14:00.416Z,95659.72
2022-12-29T11:16:32.898Z,95656.78
2022-12-29T11:19:01.088Z,95600.97
2022-12-29T11:21:34.745Z,95654.63
2022-12-29T11:24:21.620Z,95586.97
2022-12-29T11:26:51.673Z,95570.88
2022-12-29T11:29:23.868Z,95638.63
2022-12-29T11:31:53.495Z,95634.34
2022-12-29T11:34:24.489Z,95589.78
2022-12-29T11:36:54.126Z,95638.28
2022-12-29T11:39:36.328Z,95640.38
2022-12-29T11:42:05.163Z,95627.97
2022-12-29T11:44:39.309Z,95631.03
2022-12-29T11:47:10.819Z,95600.56
2022-12-29T11:49:38.515Z,95624.31
2022-12-29T11:52:06.631Z,95623.19
2022-12-29T11:54:38.915Z,95632.09
2022-12-29T11:57:14.750Z,95625.81
2022-12-29T11:59:50.227Z,95632.66
2022-12-29T12:02:42.133Z,95627.38
2022-12-29T12:05:24.064Z,95622.66
2022-12-29T12:07:57.497Z,95628.34
2022-12-29T12:10:31.923Z,95622.28
2022-12-29T12:13:08.000Z,95614.38
2022-12-29T12:15:45.976Z,95618.81
2022-12-29T12:18:20.880Z,95610.84
2022-12-29T12:20:52.628Z,95616.84
2022-12-29T12:23:38.379Z,95605.75
2022-12-29T12:26:14.230Z,95605.88
2022-12-29T12:28:50.397Z,95574.31
2022-12-29T12:31:27.365Z,95562.66
2022-12-29T12:34:02.018Z,95601.28
2022-12-29T12:36:53.484Z,95597.34
2022-12-29T12:39:28.832Z,95574.63
2022-12-29T12:42:13.336Z,95598.91
2022-12-29T12:44:55.233Z,95585.69
2022-12-29T12:47:52.941Z,95591.50
2022-12-29T12:50:34.004Z,95579.94
2022-12-29T12:53:26.111Z,95584.34
2022-12-29T12:56:05.678Z,95573.75
2022-12-29T12:58:43.556Z,95580.59
2022-12-29T13:01:25.036Z,95580.72
2022-12-29T13:04:09.308Z,95584.88
2022-12-29T13:06:50.277Z,95585.13
2022-12-29T13:09:34.420Z,95584.22
2022-12-29T13:12:18.236Z,95579.81
2022-12-29T13:15:05.464Z,95587.38
2022-12-29T13:17:42.168Z,95585.22
2022-12-29T13:20:21.694Z,95581.66
2022-12-29T13:22:56.875Z,95576.69
2022-12-29T13:25:32.875Z,95580.31
2022-12-29T13:28:10.070Z,95579.44
2022-12-29T13:30:46.406Z,95575.78
2022-12-29T13:33:23.866Z,95566.00
2022-12-29T13:35:58.694Z,95573.72
2022-12-29T13:38:31.735Z,95577.94
2022-12-29T13:41:06.233Z,95584.69
2022-12-29T13:43:37.721Z,95588.91
2022-12-29T13:46:11.103Z,95585.88
2022-12-29T13:48:44.465Z,95567.09
2022-12-29T13:51:13.951Z,95585.28
2022-12-29T13:53:59.137Z,95587.44
2022-12-29T13:56:33.481Z,95594.78
2022-12-29T13:59:08.953Z,95590.78
2022-12-29T14:01:42.575Z,95586.75
2022-12-29T14:04:15.894Z,95590.75
2022-12-29T14:06:43.689Z,95587.94
2022-12-29T14:09:40.142Z,95587.81
2022-12-29T14:12:22.529Z,95592.13
2022-12-29T14:14:50.575Z,95578.81
2022-12-29T14:17:22.619Z,95590.47
2022-12-29T14:19:55.318Z,95589.97
2022-12-29T14:22:32.622Z,95584.88
2022-12-29T14:25:01.698Z,95583.69
2022-12-29T14:27:55.530Z,95587.50
2022-12-29T14:30:59.989Z,95588.59
2022-12-29T14:33:31.657Z,95601.94
2022-12-29T14:36:23.543Z,95584.50
2022-12-29T14:38:51.266Z,95596.41
2022-12-29T14:41:33.924Z,95598.81
2022-12-29T14:44:20.364Z,95596.06
2022-12-29T14:46:57.308Z,95602.78
2022-12-29T14:49:29.377Z,95591.91
2022-12-29T14:52:07.205Z,95598.16
2022-12-29T14:54:50.250Z,95598.84
2022-12-29T14:57:26.686Z,95603.69
2022-12-29T14:59:56.883Z,95604.31
2022-12-29T15:02:28.080Z,95600.25
2022-12-29T15:05:02.887Z,95603.59
2022-12-29T15:07:31.985Z,95608.03
2022-12-29T15:10:07.228Z,95605.22
2022-12-29T15:12:40.360Z,95589.22
2022-12-29T15:15:24.104Z,95608.84
2022-12-29T15:17:51.775Z,95611.75
2022-12-29T15:20:27.075Z,95610.03
2022-12-29T15:22:58.047Z,95609.03
2022-12-29T15:25:28.932Z,95614.88
2022-12-29T15:28:03.349Z,95616.00
2022-12-29T15:30:30.991Z,95614.78
2022-12-29T15:32:58.930Z,95618.28
2022-12-29T15:35:32.743Z,95612.28
2022-12-29T15:38:02.010Z,95609.47
2022-12-29T15:40:31.711Z,95608.63
2022-12-29T15:43:29.445Z,95610.78
2022-12-29T15:45:57.457Z,95611.03
2022-12-29T15:48:26.408Z,95606.91
2022-12-29T15:50:55.876Z,95607.16
2022-12-29T15:53:29.155Z,95600.59
2022-12-29T15:56:03.204Z,95608.34
2022-12-29T15:58:40.802Z,95610.06
2022-12-29T16:01:19.701Z,95611.97
2022-12-29T16:03:48.204Z,95608.63
2022-12-29T16:06:33.309Z,95614.69
2022-12-29T16:09:03.466Z,95608.41
2022-12-29T16:11:36.834Z,95608.78
2022-12-29T16:14:09.937Z,95612.44
2022-12-29T16:16:40.492Z,95615.63
2022-12-29T16:19:15.142Z,95597.19
2022-12-29T16:21:44.953Z,95612.13
2022-12-29T16:24:16.880Z,95592.53
2022-12-29T16:26:50.251Z,95616.50
2022-12-29T16:29:18.710Z,95590.53
2022-12-29T16:32:01.501Z,95627.19
2022-12-29T16:34:32.094Z,95632.97
2022-12-29T16:37:02.635Z,95626.22
2022-12-29T16:39:36.644Z,95607.97
2022-12-29T16:42:38.655Z,95625.28
2022-12-29T16:45:51.265Z,95629.31
2022-12-29T16:48:21.860Z,95641.00
2022-12-29T16:50:50.847Z,95647.25
2022-12-29T16:53:23.793Z,95644.03
2022-12-29T16:55:52.543Z,95650.16
2022-12-29T16:58:23.558Z,95638.16
2022-12-29T17:00:51.597Z,95643.50
2022-12-29T17:03:19.440Z,95590.03
2022-12-29T17:05:49.308Z,95646.59
2022-12-29T17:08:23.877Z,95652.19
2022-12-29T17:11:11.734Z,95659.97
2022-12-29T17:13:40.047Z,95655.50
2022-12-29T17:16:10.002Z,95657.91
2022-12-29T17:18:38.185Z,95651.13
2022-12-29T17:21:05.954Z,95651.88
2022-12-29T17:23:35.119Z,95652.69
2022-12-29T17:26:03.679Z,95654.34
2022-12-29T17:28:33.235Z,95635.16
2022-12-29T17:31:04.524Z,95589.38
2022-12-29T17:33:36.641Z,95644.94
2022-12-29T17:36:04.359Z,95644.63
2022-12-29T17:38:35.770Z,95648.09
2022-12-29T17:41:04.899Z,95645.25
2022-12-29T17:43:36.677Z,95635.88
2022-12-29T17:46:07.382Z,95651.09
2022-12-29T17:48:35.293Z,95649.72
2022-12-29T17:51:03.074Z,95650.84
2022-12-29T17:53:31.797Z,95647.47
2022-12-29T17:55:59.509Z,95653.78
2022-12-29T17:58:31.482Z,95655.09
2022-12-29T18:01:01.311Z,95652.22
2022-12-29T18:03:31.596Z,95654.53
2022-12-29T18:05:59.541Z,95652.34
2022-12-29T18:08:28.545Z,95630.56
2022-12-29T18:10:56.516Z,95663.38
2022-12-29T18:13:30.714Z,95663.19
2022-12-29T18:16:05.571Z,95642.81
2022-12-29T18:18:33.236Z,95663.00
2022-12-29T18:21:01.516Z,95664.63
2022-12-29T18:23:32.161Z,95645.16
2022-12-29T18:26:02.188Z,95656.72
2022-12-29T18:28:30.152Z,95655.91
2022-12-29T18:31:00.257Z,95664.06
2022-12-29T18:33:30.353Z,95630.50
2022-12-29T18:35:59.960Z,95660.00
2022-12-29T18:38:28.410Z,95664.56
2022-12-29T18:40:56.906Z,95620.59
2022-12-29T18:43:24.874Z,95658.19
2022-12-29T18:45:52.588Z,95654.91
2022-12-29T18:48:21.650Z,95654.66
2022-12-29T18:50:51.748Z,95656.38
2022-12-29T18:53:21.501Z,95626.28
2022-12-29T18:55:49.201Z,95654.06
2022-12-29T18:58:16.878Z,95661.78
2022-12-29T19:00:45.297Z,95657.06
2022-12-29T19:03:14.579Z,95657.06
2022-12-29T19:05:44.093Z,95631.47
2022-12-29T19:08:13.407Z,95662.13
2022-12-29T19:10:42.303Z,95653.53
2022-12-29T19:13:17.247Z,95637.06
2022-12-29T19:15:46.411Z,95660.06
2022-12-29T19:21:07.126Z,95660.31
2022-12-29T19:23:36.120Z,95650.91
2022-12-29T19:26:03.758Z,95666.41
2022-12-29T19:28:31.346Z,95661.63
2022-12-29T19:31:00.858Z,95651.91
2022-12-29T19:33:29.341Z,95657.16
2022-12-29T19:36:00.985Z,95627.31
2022-12-29T19:38:28.783Z,95654.97
2022-12-29T19:40:58.107Z,95658.19
2022-12-29T19:43:25.977Z,95668.22
2022-12-29T19:45:53.842Z,95665.81
2022-12-29T19:48:21.818Z,95671.34
2022-12-29T19:50:49.446Z,95664.75
2022-12-29T19:53:17.107Z,95666.94
2022-12-29T19:55:44.741Z,95679.25
2022-12-29T19:58:14.467Z,95657.97
2022-12-29T20:00:43.140Z,95675.56
2022-12-29T20:03:11.207Z,95680.03
2022-12-29T20:05:40.087Z,95673.34
2022-12-29T20:08:07.878Z,95687.09
2022-12-29T20:10:35.523Z,95685.53
2022-12-29T20:13:04.406Z,95682.41
2022-12-29T20:15:33.446Z,95663.13
2022-12-29T20:18:16.501Z,95679.41
2022-12-29T20:20:44.183Z,95666.91
2022-12-29T20:23:11.809Z,95667.19
2022-12-29T20:25:47.660Z,95669.13
2022-12-29T20:28:16.659Z,95659.97
2022-12-29T20:30:45.654Z,95628.44
2022-12-29T20:33:13.272Z,95668.41
2022-12-29T20:35:40.887Z,95670.53
2022-12-29T20:38:08.545Z,95678.91
2022-12-29T20:40:42.308Z,95677.59
2022-12-29T20:43:11.958Z,95673.72
2022-12-29T20:45:40.131Z,95667.69
2022-12-29T20:48:09.116Z,95672.41
2022-12-29T20:50:36.747Z,95670.31
2022-12-29T20:53:04.521Z,95668.97
2022-12-29T20:55:32.468Z,95663.75
2022-12-29T21:00:48.168Z,95627.44
2022-12-29T21:03:17.221Z,95635.31
2022-12-29T21:05:44.918Z,95646.59
2022-12-29T21:08:12.605Z,95636.66
2022-12-29T21:10:40.377Z,95642.47
2022-12-29T21:13:08.008Z,95638.81
2022-12-29T21:15:35.626Z,95633.75
2022-12-29T21:18:03.185Z,95634.84
2022-12-29T21:20:32.502Z,95636.97
2022-12-29T21:23:01.041Z,95637.53
2022-12-29T21:25:36.969Z,95643.09
2022-12-29T21:28:05.279Z,95650.13
2022-12-29T21:30:33.116Z,95645.97
2022-12-29T21:33:01.478Z,95652.00
2022-12-29T21:35:29.298Z,95645.19
2022-12-29T21:37:58.276Z,95636.22
2022-12-29T21:40:25.896Z,95644.81
2022-12-29T21:42:53.681Z,95639.00
2022-12-29T21:45:26.316Z,95636.91
2022-12-29T21:48:11.456Z,95646.03
2022-12-29T21:51:01.130Z,95639.81
2022-12-29T21:53:43.802Z,95647.44
2022-12-29T21:56:14.194Z,95654.88
2022-12-29T21:59:01.849Z,95664.59
2022-12-29T22:01:49.639Z,95667.72
2022-12-29T22:04:37.561Z,95657.53
2022-12-29T22:07:24.816Z,95681.63
2022-12-29T22:10:11.615Z,95685.56
2022-12-29T22:12:57.488Z,95674.34
2022-12-29T22:15:25.911Z,95672.31
2022-12-29T22:17:55.324Z,95683.56
2022-12-29T22:20:25.289Z,95693.84
2022-12-29T22:22:52.993Z,95683.31
2022-12-29T22:25:22.173Z,95686.25
2022-12-29T22:27:54.265Z,95681.00
2022-12-29T22:30:26.690Z,95690.72
2022-12-29T22:32:54.379Z,95682.88
2022-12-29T22:35:22.072Z,95698.63
2022-12-29T22:37:49.809Z,95622.69
2022-12-29T22:40:17.549Z,95694.50
2022-12-29T22:42:47.078Z,95691.09
2022-12-29T22:45:14.813Z,95727.00
2022-12-29T22:47:42.507Z,95714.16
2022-12-29T22:50:11.201Z,95730.13
2022-12-29T22:52:38.913Z,95726.19
2022-12-29T22:55:08.492Z,95755.38
2022-12-29T22:57:36.390Z,95675.59
2022-12-29T23:00:08.073Z,95715.72
2022-12-29T23:02:36.336Z,95738.53
2022-12-29T23:05:05.515Z,95751.69
2022-12-29T23:07:34.440Z,95760.59
2022-12-29T23:10:02.606Z,95677.72
2022-12-29T23:12:31.361Z,95758.22
2022-12-29T23:14:59.216Z,95632.91
2022-12-29T23:17:28.738Z,95617.47
2022-12-29T23:19:56.558Z,95774.53
2022-12-29T23:22:25.060Z,95582.31
2022-12-29T23:24:53.002Z,95738.00
2022-12-29T23:27:20.734Z,95706.06
2022-12-29T23:29:48.561Z,95753.25
2022-12-29T23:32:16.323Z,95759.53
2022-12-29T23:34:45.436Z,95696.66
2022-12-29T23:37:13.185Z,95735.41
2022-12-29T23:39:40.917Z,95625.84
2022-12-29T23:42:08.711Z,95761.63
2022-12-29T23:44:36.510Z,95760.81
2022-12-29T23:47:04.294Z,95744.91
2022-12-29T23:49:32.257Z,95751.16
2022-12-29T23:52:01.289Z,95765.88
2022-12-29T23:54:29.056Z,95678.09
2022-12-29T23:56:56.819Z,95768.75
2022-12-29T23:59:25.349Z,95792.66
